Time;durP1;ratioP1;P1;durP2;ratioP2;P2;SDS_P1;SDS_P2;PMS_P1;PMS_P2;Temp;Humidity;BMP_temperature;BMP_pressure;BME280_temperature;BME280_humidity;BME280_pressure;Samples;Min_cycle;Max_cycle;Signal;HPM_P1;HPM_P2
2022/07/10 00:00:58;;;;;;;1.63;0.80;;;21.40;62.80;;;;;;5051428;28;43645;-60
2022/07/10 00:03:26;;;;;;;1.20;0.60;;;21.40;62.80;;;;;;5049540;28;44842;-60
2022/07/10 00:05:53;;;;;;;1.02;0.70;;;21.40;62.80;;;;;;5047450;28;43822;-60
2022/07/10 00:08:20;;;;;;;2.80;1.00;;;21.40;63.50;;;;;;5045863;28;43441;-60
2022/07/10 00:10:48;;;;;;;1.02;0.70;;;21.40;62.90;;;;;;5044801;28;43541;-60
2022/07/10 00:13:15;;;;;;;1.13;0.70;;;21.40;62.90;;;;;;5047563;28;44095;-60
2022/07/10 00:15:42;;;;;;;1.63;0.60;;;21.40;62.90;;;;;;5049430;28;43843;-60
2022/07/10 00:18:10;;;;;;;1.98;0.85;;;21.40;62.90;;;;;;5044982;28;43511;-60
2022/07/10 00:20:37;;;;;;;1.48;0.68;;;21.40;62.90;;;;;;5045268;28;43466;-60
2022/07/10 00:23:04;;;;;;;0.93;0.70;;;21.40;62.90;;;;;;5044005;28;44457;-60
2022/07/10 00:25:32;;;;;;;1.42;0.90;;;21.40;62.90;;;;;;5047059;28;43441;-60
2022/07/10 00:27:59;;;;;;;1.05;0.70;;;21.40;62.90;;;;;;5045229;28;43495;-60
2022/07/10 00:30:27;;;;;;;1.15;0.60;;;21.30;62.90;;;;;;5044976;28;44020;-60
2022/07/10 00:32:55;;;;;;;1.48;0.73;;;21.30;62.90;;;;;;5052403;28;43903;-60
2022/07/10 00:35:22;;;;;;;1.23;0.60;;;21.30;62.90;;;;;;5049109;28;44069;-60
2022/07/10 00:37:49;;;;;;;1.00;0.60;;;21.30;62.90;;;;;;5057514;28;43467;-60
2022/07/10 00:40:17;;;;;;;0.98;0.70;;;21.30;63.00;;;;;;5052459;28;43603;-60
2022/07/10 00:42:44;;;;;;;1.10;0.50;;;21.30;62.90;;;;;;5044499;28;45093;-60
2022/07/10 00:45:11;;;;;;;1.15;0.70;;;21.30;62.90;;;;;;5046528;28;44006;-60
2022/07/10 00:47:39;;;;;;;1.45;0.88;;;21.30;63.00;;;;;;5044387;28;43426;-60
2022/07/10 00:50:07;;;;;;;1.48;0.82;;;21.30;62.90;;;;;;5045560;28;43566;-60
2022/07/10 00:52:38;;;;;;;1.40;1.13;;;21.30;63.00;;;;;;5044137;28;45030;-60
2022/07/10 00:55:08;;;;;;;1.83;1.02;;;21.30;63.00;;;;;;5047247;28;43987;-60
2022/07/10 00:57:37;;;;;;;1.27;0.70;;;21.30;63.00;;;;;;5061585;28;43458;-60
2022/07/10 01:00:05;;;;;;;1.70;0.82;;;21.30;63.00;;;;;;5052938;28;43621;-60
2022/07/10 01:02:32;;;;;;;1.33;0.77;;;21.30;63.00;;;;;;5053911;28;45157;-60
2022/07/10 01:05:00;;;;;;;1.40;0.68;;;21.30;63.00;;;;;;5047778;28;43440;-61
2022/07/10 01:07:27;;;;;;;2.15;0.88;;;21.20;62.90;;;;;;5044072;28;43439;-60
2022/07/10 01:09:56;;;;;;;1.08;0.70;;;21.20;62.90;;;;;;5044169;28;43472;-60
2022/07/10 01:12:23;;;;;;;1.02;0.70;;;21.20;62.90;;;;;;5043991;28;45112;-60
2022/07/10 01:14:50;;;;;;;1.83;0.70;;;21.20;62.90;;;;;;5058550;28;43468;-60
2022/07/10 01:17:19;;;;;;;1.05;0.70;;;21.20;62.90;;;;;;5044709;28;44102;-60
2022/07/10 01:19:46;;;;;;;1.88;0.90;;;21.20;62.90;;;;;;5043437;28;43663;-60
2022/07/10 01:22:13;;;;;;;0.77;0.65;;;21.20;63.00;;;;;;5044404;28;44221;-60
2022/07/10 01:24:41;;;;;;;2.55;0.80;;;21.20;63.00;;;;;;5060443;28;43517;-60
2022/07/10 01:27:08;;;;;;;1.50;0.90;;;21.20;63.00;;;;;;5043966;28;43427;-60
2022/07/10 01:29:37;;;;;;;1.02;0.80;;;21.20;62.90;;;;;;5044596;28;43625;-60
2022/07/10 01:32:05;;;;;;;1.52;0.90;;;21.20;62.90;;;;;;5044136;28;44950;-60
2022/07/10 01:34:33;;;;;;;1.30;0.80;;;21.20;63.00;;;;;;5046014;28;43486;-60
2022/07/10 01:37:00;;;;;;;1.67;0.82;;;21.20;63.00;;;;;;5043099;28;43391;-60
2022/07/10 01:39:27;;;;;;;0.85;0.60;;;21.20;62.90;;;;;;5050907;28;43567;-59
2022/07/10 01:41:54;;;;;;;0.80;0.63;;;21.20;62.90;;;;;;5043677;28;44996;-60
2022/07/10 01:44:22;;;;;;;0.88;0.73;;;21.20;62.90;;;;;;5046728;28;44041;-60
2022/07/10 01:46:49;;;;;;;1.45;0.70;;;21.20;62.90;;;;;;5043514;28;43458;-60
2022/07/10 01:49:16;;;;;;;1.90;0.90;;;21.10;62.80;;;;;;5043976;28;43558;-60
2022/07/10 01:51:44;;;;;;;1.05;0.50;;;21.20;62.90;;;;;;5043465;28;45111;-59
2022/07/10 01:54:11;;;;;;;2.05;0.88;;;21.10;62.80;;;;;;5046558;28;43451;-60
2022/07/10 01:56:38;;;;;;;1.88;1.00;;;21.10;62.80;;;;;;5043735;28;43463;-60
2022/07/10 01:59:06;;;;;;;0.93;0.63;;;21.20;62.90;;;;;;5056293;28;43606;-60
2022/07/10 02:01:34;;;;;;;1.00;0.80;;;21.10;62.80;;;;;;5056165;28;44818;-60
2022/07/10 02:06:47;;;;;;;1.55;0.60;;;21.20;62.90;;;;;;5043859;28;43470;-60
2022/07/10 02:09:15;;;;;;;1.92;1.05;;;21.10;62.80;;;;;;5043738;28;43577;-60
2022/07/10 02:11:42;;;;;;;1.15;0.73;;;21.10;62.80;;;;;;5045231;28;44672;-59
2022/07/10 02:14:10;;;;;;;0.95;0.57;;;21.10;62.80;;;;;;5048405;28;43906;-60
2022/07/10 02:16:38;;;;;;;0.88;0.60;;;21.10;62.80;;;;;;5043257;28;43402;-60
2022/07/10 02:19:05;;;;;;;1.48;0.70;;;21.10;62.80;;;;;;5043826;28;43423;-60
2022/07/10 02:21:33;;;;;;;1.70;0.90;;;21.10;62.80;;;;;;5045081;28;44989;-59
2022/07/10 02:24:00;;;;;;;1.48;0.70;;;21.10;62.80;;;;;;5046679;28;44033;-60
2022/07/10 02:26:27;;;;;;;1.10;0.77;;;21.10;62.80;;;;;;5047521;28;43389;-60
2022/07/10 02:28:55;;;;;;;1.30;0.75;;;21.10;62.70;;;;;;5046939;28;43620;-60
2022/07/10 02:31:22;;;;;;;2.25;1.15;;;21.10;62.80;;;;;;5048400;28;44951;-60
2022/07/10 02:33:49;;;;;;;1.13;0.80;;;21.00;62.70;;;;;;5054478;28;43957;-60
2022/07/10 02:36:16;;;;;;;0.63;0.60;;;21.00;62.70;;;;;;5046885;28;43409;-60
2022/07/10 02:38:44;;;;;;;1.58;0.80;;;21.10;62.80;;;;;;5050490;28;43569;-60
2022/07/10 02:41:11;;;;;;;0.77;0.70;;;21.00;62.70;;;;;;5050922;28;45278;-60
2022/07/10 02:43:39;;;;;;;0.73;0.70;;;21.00;62.70;;;;;;5046504;28;43400;-60
2022/07/10 02:46:06;;;;;;;2.03;0.90;;;21.00;62.70;;;;;;5047108;28;43467;-60
2022/07/10 02:48:34;;;;;;;1.48;0.75;;;21.00;62.70;;;;;;5046776;28;43595;-60
2022/07/10 02:51:01;;;;;;;1.48;0.77;;;21.00;62.70;;;;;;5053802;28;44956;-60
2022/07/10 02:53:29;;;;;;;1.88;0.68;;;21.00;62.70;;;;;;5047179;28;44091;-60
2022/07/10 02:55:57;;;;;;;1.70;0.73;;;21.00;62.70;;;;;;5046758;28;43403;-60
2022/07/10 02:58:24;;;;;;;1.80;0.80;;;21.00;62.70;;;;;;5056392;28;43578;-60
2022/07/10 03:00:52;;;;;;;1.83;0.98;;;21.00;62.80;;;;;;5050593;28;44053;-60
2022/07/10 03:03:19;;;;;;;1.48;0.80;;;21.00;62.80;;;;;;5055714;28;43964;-60
2022/07/10 03:05:47;;;;;;;1.40;0.80;;;21.00;62.80;;;;;;5046054;28;43481;-60
2022/07/10 03:08:14;;;;;;;1.15;0.70;;;21.00;62.70;;;;;;5046301;28;43564;-60
2022/07/10 03:10:41;;;;;;;1.73;0.85;;;21.00;62.80;;;;;;5047544;28;43884;-60
2022/07/10 03:13:09;;;;;;;1.10;0.70;;;21.00;62.70;;;;;;5047011;28;43369;-60
2022/07/10 03:15:36;;;;;;;1.58;0.80;;;21.00;62.80;;;;;;5056814;28;43402;-60
2022/07/10 03:18:04;;;;;;;0.60;0.52;;;21.00;62.80;;;;;;5045922;28;43505;-60
2022/07/10 03:20:31;;;;;;;1.48;0.80;;;21.00;62.80;;;;;;5046420;28;43863;-60
2022/07/10 03:22:58;;;;;;;1.30;0.90;;;21.00;62.80;;;;;;5047458;28;43482;-60
2022/07/10 03:25:26;;;;;;;2.30;0.90;;;20.90;62.70;;;;;;5056913;28;43398;-60
2022/07/10 03:27:53;;;;;;;2.53;0.80;;;20.90;62.70;;;;;;5045292;28;43614;-60
2022/07/10 03:30:20;;;;;;;1.98;0.95;;;20.90;62.70;;;;;;5047902;28;43990;-60
2022/07/10 03:32:48;;;;;;;1.05;0.60;;;21.00;62.80;;;;;;5046913;28;43984;-59
2022/07/10 03:35:15;;;;;;;1.55;0.82;;;20.90;62.70;;;;;;5046351;28;43517;-60
2022/07/10 03:37:42;;;;;;;0.70;0.68;;;20.90;62.70;;;;;;5045715;28;43577;-60
2022/07/10 03:40:10;;;;;;;1.77;0.70;;;20.90;62.70;;;;;;5060969;28;44796;-60
2022/07/10 03:42:37;;;;;;;1.02;0.70;;;20.90;62.80;;;;;;5046437;28;43459;-60
2022/07/10 03:45:05;;;;;;;1.10;0.70;;;20.90;62.80;;;;;;5045987;28;43483;-60
2022/07/10 03:47:33;;;;;;;1.50;0.70;;;20.90;62.80;;;;;;5044987;28;43675;-60
2022/07/10 03:50:00;;;;;;;1.85;0.90;;;20.90;62.80;;;;;;5047213;28;44329;-60
2022/07/10 03:52:27;;;;;;;3.20;1.08;;;20.90;62.80;;;;;;5046654;28;44028;-60
2022/07/10 03:54:55;;;;;;;1.58;0.98;;;20.90;62.80;;;;;;5045494;28;43414;-60
2022/07/10 04:00:09;;;;;;;2.20;1.10;;;20.90;62.80;;;;;;5045629;28;45061;-59
2022/07/10 04:02:39;;;;;;;1.48;0.80;;;20.90;62.80;;;;;;5053769;28;44016;-60
2022/07/10 04:05:08;;;;;;;2.17;0.88;;;20.90;62.90;;;;;;5045990;28;43490;-60
2022/07/10 04:07:36;;;;;;;1.52;0.73;;;20.90;62.90;;;;;;5045557;28;43615;-60
2022/07/10 04:10:04;;;;;;;0.75;0.65;;;20.90;62.80;;;;;;5046421;28;44770;-60
2022/07/10 04:12:32;;;;;;;0.70;0.55;;;20.90;62.90;;;;;;5043976;28;43420;-60
2022/07/10 04:14:59;;;;;;;1.42;0.73;;;20.90;62.90;;;;;;5048951;28;43479;-60
2022/07/10 04:17:27;;;;;;;0.88;0.70;;;20.90;62.90;;;;;;5044667;28;43664;-60
2022/07/10 04:19:54;;;;;;;0.93;0.70;;;20.90;62.90;;;;;;5046830;28;44060;-60
2022/07/10 04:22:21;;;;;;;1.00;0.70;;;20.90;62.80;;;;;;5044726;28;43481;-60
2022/07/10 04:24:50;;;;;;;1.45;0.93;;;20.80;62.80;;;;;;5045360;28;43850;-60
2022/07/10 04:27:17;;;;;;;1.23;0.85;;;20.90;62.90;;;;;;5046465;28;43622;-60
2022/07/10 04:29:45;;;;;;;1.88;0.70;;;20.90;62.90;;;;;;5045396;28;45158;-60
2022/07/10 04:32:13;;;;;;;1.15;0.82;;;20.90;63.00;;;;;;5047384;28;43520;-60
2022/07/10 04:34:40;;;;;;;0.85;0.70;;;20.80;62.80;;;;;;5062690;28;43444;-60
2022/07/10 04:37:08;;;;;;;1.10;0.63;;;20.90;62.90;;;;;;5048201;28;43665;-60
2022/07/10 04:39:39;;;;;;;1.08;0.70;;;20.80;62.80;;;;;;5052601;28;43796;-60
2022/07/10 04:42:08;;;;;;;1.90;1.10;;;20.80;62.80;;;;;;5044857;28;43966;-60
2022/07/10 04:44:36;;;;;;;4.30;1.42;;;20.80;62.80;;;;;;5044132;28;43387;-60
2022/07/10 04:47:05;;;;;;;1.42;0.80;;;20.80;62.80;;;;;;5046321;28;43553;-60
2022/07/10 04:49:34;;;;;;;0.88;0.73;;;20.80;62.90;;;;;;5044554;28;43888;-60
2022/07/10 04:52:01;;;;;;;1.38;0.80;;;20.80;62.80;;;;;;5050030;28;43444;-60
2022/07/10 04:54:29;;;;;;;1.33;0.90;;;20.80;62.80;;;;;;5045321;28;43473;-60
2022/07/10 04:56:56;;;;;;;1.75;0.90;;;20.80;62.80;;;;;;5060640;28;43602;-60
2022/07/10 04:59:23;;;;;;;0.93;0.80;;;20.80;62.80;;;;;;5056706;28;44097;-60
2022/07/10 05:01:51;;;;;;;1.27;0.70;;;20.80;62.80;;;;;;5047464;28;43981;-60
2022/07/10 05:04:18;;;;;;;1.75;0.80;;;20.80;62.80;;;;;;5050524;28;43377;-60
2022/07/10 05:06:45;;;;;;;1.38;0.70;;;20.80;62.90;;;;;;5045688;28;43740;-60
2022/07/10 05:09:13;;;;;;;2.25;0.88;;;20.80;63.00;;;;;;5060401;28;44279;-60
2022/07/10 05:11:40;;;;;;;2.25;0.85;;;20.80;62.90;;;;;;5043786;28;43995;-60
2022/07/10 05:14:07;;;;;;;1.15;0.70;;;20.70;62.90;;;;;;5054324;28;43434;-60
2022/07/10 05:16:35;;;;;;;1.10;0.70;;;20.80;63.00;;;;;;5048478;28;43606;-60
2022/07/10 05:19:02;;;;;;;1.13;0.82;;;20.80;63.00;;;;;;5044324;28;43793;-60
2022/07/10 05:21:30;;;;;;;1.92;0.85;;;20.80;63.00;;;;;;5044477;28;43456;-59
2022/07/10 05:23:57;;;;;;;2.80;0.70;;;20.70;63.00;;;;;;5056105;28;43554;-60
2022/07/10 05:26:25;;;;;;;1.40;0.80;;;20.70;62.90;;;;;;5048040;28;43576;-60
2022/07/10 05:28:52;;;;;;;1.02;0.70;;;20.70;63.00;;;;;;5044003;28;44220;-60
2022/07/10 05:31:19;;;;;;;1.27;0.80;;;20.70;63.00;;;;;;5044524;28;43942;-60
2022/07/10 05:33:47;;;;;;;1.35;0.80;;;20.80;63.10;;;;;;5044518;28;43405;-60
2022/07/10 05:36:14;;;;;;;3.85;1.23;;;20.70;63.00;;;;;;5045913;28;44238;-60
2022/07/10 05:38:41;;;;;;;1.42;0.70;;;20.80;63.00;;;;;;5043892;28;45161;-60
2022/07/10 05:41:09;;;;;;;1.48;0.80;;;20.70;63.00;;;;;;5050999;28;43434;-60
2022/07/10 05:43:36;;;;;;;2.33;1.00;;;20.70;63.00;;;;;;5049885;28;43510;-60
2022/07/10 05:46:03;;;;;;;1.13;0.70;;;20.70;63.10;;;;;;5053797;28;43612;-60
2022/07/10 05:48:31;;;;;;;0.88;0.55;;;20.80;63.20;;;;;;5044515;28;43755;-60
2022/07/10 05:50:58;;;;;;;1.35;0.90;;;20.80;63.20;;;;;;5049861;28;44187;-60
2022/07/10 05:53:46;;;;;;;1.63;1.05;;;20.80;63.20;;;;;;5046699;28;43403;-60
2022/07/10 05:56:13;;;;;;;1.27;0.95;;;20.70;63.20;;;;;;5047489;28;43421;-60
2022/07/10 05:58:41;;;;;;;1.80;0.80;;;20.80;63.30;;;;;;5051432;28;44119;-60
2022/07/10 06:01:09;;;;;;;1.38;0.82;;;20.70;63.20;;;;;;5052333;28;43395;-60
2022/07/10 06:03:36;;;;;;;2.10;0.95;;;20.70;63.20;;;;;;5050981;28;43466;-60
2022/07/10 06:06:03;;;;;;;1.83;1.10;;;20.70;63.30;;;;;;5049563;28;43521;-60
2022/07/10 06:08:31;;;;;;;0.85;0.80;;;20.80;63.30;;;;;;5046930;28;44054;-60
2022/07/10 06:10:58;;;;;;;1.33;0.63;;;20.70;63.30;;;;;;5047503;28;43929;-60
2022/07/10 06:13:25;;;;;;;0.90;0.68;;;20.70;63.20;;;;;;5050853;28;43466;-60
2022/07/10 06:15:53;;;;;;;1.63;0.93;;;20.70;63.40;;;;;;5049260;28;43428;-60
2022/07/10 06:18:20;;;;;;;1.48;0.85;;;20.70;63.30;;;;;;5047518;28;44080;-60
2022/07/10 06:20:47;;;;;;;1.52;0.90;;;20.70;63.30;;;;;;5046954;28;43427;-60
2022/07/10 06:23:15;;;;;;;1.27;0.70;;;20.70;63.40;;;;;;5047170;28;43475;-60
2022/07/10 06:25:42;;;;;;;1.20;0.80;;;20.80;63.40;;;;;;5049455;28;43513;-60
2022/07/10 06:28:09;;;;;;;1.27;0.75;;;20.70;63.20;;;;;;5052654;28;44994;-60
2022/07/10 06:30:36;;;;;;;1.05;0.73;;;20.70;63.30;;;;;;5054831;28;43453;-60
2022/07/10 06:33:04;;;;;;;0.80;0.60;;;20.80;63.30;;;;;;5056019;28;43522;-60
2022/07/10 06:35:31;;;;;;;1.58;0.90;;;20.70;63.20;;;;;;5048791;28;43577;-60
2022/07/10 06:37:59;;;;;;;0.73;0.70;;;20.80;63.30;;;;;;5046418;28;44926;-60
2022/07/10 06:40:27;;;;;;;1.17;0.80;;;20.80;63.30;;;;;;5053283;28;44141;-60
2022/07/10 06:42:54;;;;;;;1.52;0.82;;;20.70;63.20;;;;;;5045102;28;43457;-60
2022/07/10 06:45:22;;;;;;;1.50;0.80;;;20.80;63.30;;;;;;5049415;28;43519;-60
2022/07/10 06:48:01;;;;;;;1.45;0.82;;;20.70;63.30;;;;;;5046071;28;44919;-60
2022/07/10 06:50:30;;;;;;;1.60;0.90;;;20.70;63.30;;;;;;5048745;28;43975;-60
2022/07/10 06:52:59;;;;;;;1.65;0.77;;;20.70;63.30;;;;;;5049673;28;43417;-60
2022/07/10 06:55:27;;;;;;;0.73;0.70;;;20.70;63.30;;;;;;5059505;28;43589;-60
2022/07/10 06:57:55;;;;;;;1.55;0.80;;;20.70;64.00;;;;;;5053340;28;43981;-61
2022/07/10 07:00:23;;;;;;;0.63;0.63;;;20.70;63.30;;;;;;5049461;28;44006;-60
2022/07/10 07:02:50;;;;;;;1.77;0.77;;;20.80;63.40;;;;;;5049769;28;43639;-60
2022/07/10 07:05:18;;;;;;;2.20;0.90;;;20.70;63.30;;;;;;5059968;28;43477;-60
2022/07/10 07:07:45;;;;;;;2.08;0.70;;;20.70;63.20;;;;;;5045298;28;45050;-60
2022/07/10 07:10:13;;;;;;;0.90;0.80;;;20.70;63.30;;;;;;5048407;28;43412;-60
2022/07/10 07:12:40;;;;;;;1.63;0.70;;;20.70;63.30;;;;;;5063729;28;43458;-60
2022/07/10 07:15:07;;;;;;;0.85;0.73;;;20.70;63.30;;;;;;5047333;28;43539;-60
2022/07/10 07:17:56;;;;;;;0.88;0.70;;;20.70;63.30;;;;;;5045910;28;44026;-60
2022/07/10 07:23:11;;;;;;;1.10;0.60;;;20.70;63.30;;;;;;5056039;28;43546;-60
2022/07/10 07:25:46;;;;;;;1.35;0.68;;;20.70;63.30;;;;;;5045790;28;43527;-60
2022/07/10 07:28:21;;;;;;;1.17;0.90;;;20.70;63.40;;;;;;5055846;28;45265;-61
2022/07/10 07:30:49;;;;;;;1.63;0.70;;;20.70;63.30;;;;;;5045681;28;43990;-60
2022/07/10 07:33:16;;;;;;;0.85;0.52;;;20.70;63.30;;;;;;5046681;28;43499;-60
2022/07/10 07:35:44;;;;;;;1.67;1.00;;;20.70;63.30;;;;;;5045836;28;43423;-60
2022/07/10 07:38:11;;;;;;;0.90;0.60;;;20.70;63.40;;;;;;5047721;28;44183;-60
2022/07/10 07:40:39;;;;;;;1.05;0.60;;;20.70;63.40;;;;;;5045784;28;43480;-60
2022/07/10 07:43:06;;;;;;;1.10;0.70;;;20.70;63.30;;;;;;5045923;28;43446;-60
2022/07/10 07:45:33;;;;;;;1.42;0.68;;;20.70;63.30;;;;;;5046079;28;43501;-60
2022/07/10 07:48:04;;;;;;;1.27;0.70;;;20.70;63.40;;;;;;5047054;28;44020;-60
2022/07/10 07:50:33;;;;;;;0.73;0.68;;;20.70;63.40;;;;;;5059325;28;43484;-60
2022/07/10 07:53:03;;;;;;;0.82;0.50;;;20.70;63.40;;;;;;5055082;28;43502;-60
2022/07/10 07:55:32;;;;;;;1.75;0.90;;;20.70;63.40;;;;;;5045901;28;43596;-60
2022/07/10 07:58:01;;;;;;;0.90;0.68;;;20.70;63.40;;;;;;5051162;28;44960;-59
2022/07/10 08:00:29;;;;;;;1.85;0.82;;;20.70;63.40;;;;;;5050703;28;43521;-60
2022/07/10 08:03:00;;;;;;;1.05;0.45;;;20.70;63.40;;;;;;5047917;28;43535;-60
2022/07/10 08:05:28;;;;;;;1.08;0.80;;;20.70;63.50;;;;;;5045403;28;43499;-60
2022/07/10 08:07:58;;;;;;;1.35;0.60;;;20.70;63.40;;;;;;5045005;28;44723;-60
2022/07/10 08:10:27;;;;;;;2.05;1.02;;;20.70;63.40;;;;;;5045610;28;44341;-60
2022/07/10 08:12:54;;;;;;;0.80;0.60;;;20.70;63.40;;;;;;5045213;28;43517;-60
2022/07/10 08:15:23;;;;;;;1.27;0.80;;;20.70;63.50;;;;;;5048799;28;43590;-60
2022/07/10 08:17:52;;;;;;;1.77;0.70;;;20.70;63.50;;;;;;5045865;28;44054;-60
2022/07/10 08:20:20;;;;;;;3.15;0.80;;;20.70;64.00;;;;;;5053220;28;44091;-60
2022/07/10 08:22:48;;;;;;;2.78;1.02;;;20.70;64.00;;;;;;5044239;28;43515;-60
2022/07/10 08:25:21;;;;;;;0.82;0.80;;;20.70;63.90;;;;;;5047272;28;43518;-60
2022/07/10 08:27:50;;;;;;;2.85;1.00;;;20.70;64.00;;;;;;5044453;28;44983;-60
2022/07/10 08:30:17;;;;;;;1.58;0.85;;;20.80;64.00;;;;;;5045002;28;43470;-60
2022/07/10 08:32:45;;;;;;;2.38;0.80;;;20.80;63.90;;;;;;5051097;28;43397;-60
2022/07/10 08:35:13;;;;;;;1.55;0.90;;;20.80;64.00;;;;;;5049071;28;43502;-60
2022/07/10 08:37:42;;;;;;;2.17;0.85;;;20.80;63.90;;;;;;5044257;28;45047;-60
2022/07/10 08:40:12;;;;;;;1.83;1.00;;;20.80;63.90;;;;;;5050838;28;44088;-60
2022/07/10 08:42:44;;;;;;;1.50;0.80;;;20.80;64.00;;;;;;5044775;28;43386;-60
2022/07/10 08:45:13;;;;;;;1.60;0.77;;;20.80;64.00;;;;;;5047821;28;43412;-60
2022/07/10 08:47:46;;;;;;;2.53;0.88;;;20.80;64.00;;;;;;5044218;28;44970;-60
2022/07/10 08:50:22;;;;;;;1.95;1.00;;;20.80;64.00;;;;;;5045660;28;43440;-60
2022/07/10 08:53:11;;;;;;;1.27;0.90;;;20.80;64.00;;;;;;5048422;28;43423;-60
2022/07/10 08:55:39;;;;;;;1.50;0.57;;;20.80;64.00;;;;;;5055586;28;44013;-61
2022/07/10 08:58:09;;;;;;;1.65;0.80;;;20.80;63.90;;;;;;5052022;28;44033;-61
2022/07/10 09:00:36;;;;;;;1.40;0.80;;;20.80;63.90;;;;;;5046874;28;43461;-61
2022/07/10 09:03:04;;;;;;;2.20;1.00;;;20.80;63.90;;;;;;5053920;28;43506;-60
2022/07/10 09:05:31;;;;;;;1.80;0.70;;;20.80;64.00;;;;;;5050527;28;43480;-61
2022/07/10 09:07:58;;;;;;;1.27;0.93;;;20.80;64.00;;;;;;5052114;28;44956;-60
2022/07/10 09:10:27;;;;;;;1.60;0.70;;;20.80;63.90;;;;;;5044854;28;43506;-62
2022/07/10 09:13:01;;;;;;;1.63;0.85;;;20.80;63.90;;;;;;5046093;28;43452;-61
2022/07/10 09:15:32;;;;;;;2.03;1.08;;;20.80;63.90;;;;;;5044640;28;43509;-61
2022/07/10 09:18:05;;;;;;;1.65;0.60;;;20.90;64.00;;;;;;5043864;28;44342;-61
2022/07/10 09:20:33;;;;;;;2.35;0.85;;;20.90;64.00;;;;;;5047120;28;43425;-61
2022/07/10 09:23:17;;;;;;;2.38;0.90;;;20.90;63.90;;;;;;5044146;28;43534;-60
2022/07/10 09:25:51;;;;;;;1.10;0.68;;;20.90;63.80;;;;;;5043850;28;43987;-61
2022/07/10 09:28:25;;;;;;;2.47;0.70;;;20.90;63.90;;;;;;5046238;28;44028;-61
2022/07/10 09:30:53;;;;;;;1.48;0.75;;;20.90;63.90;;;;;;5050329;28;43399;-61
2022/07/10 09:33:25;;;;;;;1.63;0.80;;;20.90;63.90;;;;;;5044806;28;43504;-62
2022/07/10 09:36:04;;;;;;;1.65;0.77;;;21.00;63.80;;;;;;5048951;28;43400;-62
2022/07/10 09:38:44;;;;;;;1.00;0.60;;;21.00;63.80;;;;;;5044020;28;44346;-61
2022/07/10 09:41:13;;;;;;;1.33;0.65;;;21.00;63.90;;;;;;5043164;28;44035;-62
2022/07/10 09:43:50;;;;;;;2.35;0.80;;;21.00;63.80;;;;;;5043995;28;43427;-62
2022/07/10 09:46:22;;;;;;;1.00;0.63;;;20.90;63.90;;;;;;5046204;28;43606;-62
2022/07/10 09:49:01;;;;;;;1.60;0.90;;;21.00;64.00;;;;;;5043644;28;44057;-62
2022/07/10 09:51:34;;;;;;;1.80;0.85;;;21.00;63.90;;;;;;5054516;28;43521;-60
2022/07/10 09:54:03;;;;;;;2.05;0.75;;;20.90;63.90;;;;;;5047365;28;43525;-60
2022/07/10 09:56:46;;;;;;;2.40;0.80;;;21.00;64.00;;;;;;5044408;28;43547;-61
2022/07/10 09:59:19;;;;;;;1.70;0.90;;;21.00;63.80;;;;;;5047365;28;44956;-60
2022/07/10 10:01:48;;;;;;;2.33;0.90;;;21.00;63.90;;;;;;5058361;28;43604;-60
2022/07/10 10:04:21;;;;;;;1.73;0.60;;;21.00;63.80;;;;;;5047361;28;43389;-61
2022/07/10 10:06:56;;;;;;;1.25;0.60;;;21.00;63.80;;;;;;5043618;28;43416;-61
2022/07/10 10:09:31;;;;;;;1.17;1.08;;;21.00;63.80;;;;;;5044285;28;44872;-61
2022/07/10 10:12:07;;;;;;;3.22;0.50;;;21.00;63.80;;;;;;5057885;28;43440;-60
2022/07/10 10:14:35;;;;;;;2.92;1.00;;;21.00;63.90;;;;;;5046119;28;43443;-60
2022/07/10 10:17:05;;;;;;;2.92;1.05;;;21.00;63.90;;;;;;5044208;28;43479;-61
2022/07/10 10:22:22;;;;;;;1.55;0.68;;;21.00;63.90;;;;;;5053656;28;43574;-61
2022/07/10 10:24:50;;;;;;;1.42;0.73;;;21.00;64.00;;;;;;5054397;28;43461;-62
2022/07/10 10:27:19;;;;;;;1.80;0.60;;;21.00;64.00;;;;;;5052791;28;43614;-61
2022/07/10 10:29:48;;;;;;;2.17;0.52;;;21.00;64.00;;;;;;5051455;28;45032;-62
2022/07/10 10:32:16;;;;;;;1.45;0.70;;;21.00;64.00;;;;;;5052628;28;43999;-60
2022/07/10 10:34:55;;;;;;;1.98;0.80;;;21.00;64.10;;;;;;5053577;28;43403;-61
2022/07/10 10:37:44;;;;;;;1.92;0.70;;;21.10;64.10;;;;;;5047310;28;44094;-61
2022/07/10 10:40:31;;;;;;;2.50;1.08;;;21.00;64.10;;;;;;5052787;28;44934;-61
2022/07/10 10:43:15;;;;;;;1.02;0.60;;;21.10;64.40;;;;;;5044473;28;43948;-61
2022/07/10 10:45:42;;;;;;;1.58;0.85;;;21.00;64.30;;;;;;5056417;28;43437;-61
2022/07/10 10:48:14;;;;;;;2.35;0.85;;;21.00;64.40;;;;;;5046863;28;43655;-61
2022/07/10 10:51:01;;;;;;;0.95;0.70;;;21.10;64.40;;;;;;5054405;28;43874;-61
2022/07/10 10:53:31;;;;;;;1.77;0.82;;;21.10;64.40;;;;;;5046281;28;44028;-61
2022/07/10 10:56:05;;;;;;;1.20;0.68;;;21.10;64.40;;;;;;5046270;28;43423;-62
2022/07/10 10:58:43;;;;;;;1.45;0.77;;;21.10;64.50;;;;;;5058206;28;43474;-62
2022/07/10 11:01:22;;;;;;;0.82;0.73;;;21.10;64.40;;;;;;5046553;28;44717;-61
2022/07/10 11:04:07;;;;;;;1.60;0.80;;;21.10;64.40;;;;;;5053187;28;43845;-61
2022/07/10 11:06:51;;;;;;;1.60;0.80;;;21.10;64.30;;;;;;5061990;28;43379;-61
2022/07/10 11:09:25;;;;;;;1.20;0.65;;;21.10;64.40;;;;;;5049994;28;43539;-61
2022/07/10 11:12:08;;;;;;;1.23;0.80;;;21.10;64.40;;;;;;5045120;28;44375;-61
2022/07/10 11:14:37;;;;;;;0.95;0.70;;;21.10;64.40;;;;;;5058954;28;43940;-60
2022/07/10 11:17:06;;;;;;;0.70;0.68;;;21.10;64.50;;;;;;5059559;28;43618;-61
2022/07/10 11:19:34;;;;;;;0.80;0.75;;;21.10;64.40;;;;;;5046248;28;43439;-61
2022/07/10 11:22:23;;;;;;;2.08;0.98;;;21.10;64.50;;;;;;5045933;28;43895;-60
2022/07/10 11:25:38;;;;;;;0.80;0.70;;;21.10;64.50;;;;;;5059455;28;43481;-61
2022/07/10 11:28:11;;;;;;;1.85;0.77;;;21.10;64.40;;;;;;5039807;28;44071;-62
2022/07/10 11:30:52;;;;;;;1.65;0.73;;;21.10;64.50;;;;;;5047139;28;43500;-62
2022/07/10 11:33:21;;;;;;;0.70;0.60;;;21.10;64.40;;;;;;5045586;28;44057;-61
2022/07/10 11:35:50;;;;;;;1.63;0.65;;;21.10;64.50;;;;;;5045150;28;44389;-61
2022/07/10 11:38:25;;;;;;;1.63;0.90;;;21.10;64.50;;;;;;5048781;28;43383;-61
2022/07/10 11:40:56;;;;;;;0.70;0.70;;;21.10;64.50;;;;;;5057794;28;43530;-61
2022/07/10 11:43:26;;;;;;;0.70;0.70;;;21.10;64.60;;;;;;5056518;28;44729;-61
2022/07/10 11:46:00;;;;;;;0.90;0.68;;;21.10;64.50;;;;;;5049259;28;43461;-61
2022/07/10 11:48:27;;;;;;;0.90;0.75;;;21.10;64.50;;;;;;5044721;28;43472;-61
2022/07/10 11:50:55;;;;;;;1.35;0.63;;;21.10;64.50;;;;;;5052536;28;43579;-61
2022/07/10 11:53:26;;;;;;;1.50;0.80;;;21.10;64.50;;;;;;5051260;28;44185;-61
2022/07/10 11:55:53;;;;;;;;;;;21.20;64.60;;;;;;5048135;28;43777;-61
2022/07/10 11:58:22;;;;;;;1.80;0.80;;;21.10;64.50;;;;;;5056063;28;43398;-61
2022/07/10 12:01:01;;;;;;;1.05;0.77;;;21.10;64.60;;;;;;5046977;28;43543;-62
2022/07/10 12:03:29;;;;;;;1.08;0.70;;;21.10;64.60;;;;;;5051020;28;45025;-62
2022/07/10 12:06:05;;;;;;;1.00;0.80;;;21.10;64.50;;;;;;5061679;28;44071;-62
2022/07/10 12:08:46;;;;;;;0.57;0.57;;;21.10;64.60;;;;;;5045179;28;43586;-60
2022/07/10 12:11:20;;;;;;;2.15;0.90;;;21.10;64.50;;;;;;5045415;28;43601;-60
2022/07/10 12:13:50;;;;;;;1.75;0.93;;;21.20;64.50;;;;;;5059907;28;44994;-60
2022/07/10 12:16:18;;;;;;;2.63;1.00;;;21.20;64.40;;;;;;5045763;28;43989;-60
2022/07/10 12:18:46;;;;;;;1.10;0.65;;;21.20;64.40;;;;;;5044735;28;43566;-60
2022/07/10 12:21:14;;;;;;;0.63;0.50;;;21.20;64.40;;;;;;5050642;28;43511;-60
2022/07/10 12:23:44;;;;;;;1.40;0.80;;;21.20;64.40;;;;;;5054163;28;44937;-60
2022/07/10 12:26:12;;;;;;;0.80;0.80;;;21.20;64.40;;;;;;5057297;28;43554;-60
2022/07/10 12:28:54;;;;;;;0.77;0.75;;;21.20;64.30;;;;;;5055206;28;43478;-60
2022/07/10 12:31:32;;;;;;;0.55;0.55;;;21.20;64.30;;;;;;5057697;28;43684;-60
2022/07/10 12:34:05;;;;;;;4.07;1.20;;;21.20;64.30;;;;;;5053218;28;43798;-59
2022/07/10 12:36:43;;;;;;;0.90;0.70;;;21.20;64.30;;;;;;5048267;28;43474;-60
2022/07/10 12:39:11;;;;;;;1.75;0.80;;;21.20;64.20;;;;;;5055538;28;43587;-58
2022/07/10 12:42:02;;;;;;;1.23;0.80;;;21.20;64.20;;;;;;5050606;28;43583;-59
2022/07/10 12:44:37;;;;;;;1.33;1.00;;;21.20;64.20;;;;;;5048524;28;45163;-59
2022/07/10 12:47:15;;;;;;;1.40;1.10;;;21.20;64.30;;;;;;5049432;28;44150;-59
2022/07/10 12:50:02;;;;;;;0.75;0.50;;;21.20;64.20;;;;;;5049462;28;43527;-59
2022/07/10 12:52:35;;;;;;;0.73;0.73;;;21.20;64.20;;;;;;5051182;28;43547;-61
2022/07/10 12:55:21;;;;;;;1.52;0.80;;;21.20;64.30;;;;;;5040475;28;44974;-60
2022/07/10 12:57:57;;;;;;;1.20;0.88;;;21.20;64.30;;;;;;5055123;28;43934;-60
2022/07/10 13:00:24;;;;;;;2.15;0.50;;;21.20;64.20;;;;;;5049946;28;43508;-59
2022/07/10 13:03:03;;;;;;;0.68;0.60;;;21.20;64.20;;;;;;5049533;28;43692;-59
2022/07/10 13:05:33;;;;;;;1.40;0.60;;;21.20;64.20;;;;;;5052685;28;43830;-60
2022/07/10 13:08:25;;;;;;;1.73;0.77;;;21.20;64.30;;;;;;5054166;28;43398;-60
2022/07/10 13:10:58;;;;;;;1.33;0.80;;;21.20;64.20;;;;;;5054392;28;43482;-60
2022/07/10 13:13:26;;;;;;;1.08;0.73;;;21.20;64.20;;;;;;5055185;28;43561;-59